Time;durP1;ratioP1;P1;durP2;ratioP2;P2;SDS_P1;SDS_P2;PMS_P1;PMS_P2;Temp;Humidity;BMP_temperature;BMP_pressure;BME280_temperature;BME280_humidity;BME280_pressure;Samples;Min_cycle;Max_cycle;Signal;HPM_P1;HPM_P2
2022/08/17 00:00:47;;;;;;;5.78;4.90;;;;;;;19.70;56.29;95086.66;5027003;28;20189;-83
2022/08/17 00:03:28;;;;;;;6.50;4.90;;;;;;;19.75;55.76;95091.25;5027524;28;20208;-83
2022/08/17 00:05:59;;;;;;;4.80;4.40;;;;;;;19.84;55.93;95081.25;5031096;28;20245;-83
2022/08/17 00:08:31;;;;;;;7.35;4.00;;;;;;;19.82;55.35;95086.75;5028232;28;20193;-83
2022/08/17 00:10:57;;;;;;;4.97;4.55;;;;;;;19.83;55.15;95085.72;5029791;28;20571;-83
2022/08/17 00:13:28;;;;;;;9.25;4.22;;;;;;;19.88;54.71;95091.16;5029526;28;20181;-83
2022/08/17 00:15:58;;;;;;;4.68;4.13;;;;;;;19.99;54.49;95087.00;5023176;28;20273;-83
2022/08/17 00:18:24;;;;;;;6.20;4.22;;;;;;;20.00;54.50;95089.41;5047526;28;20190;-83
2022/08/17 00:20:49;;;;;;;4.95;4.55;;;;;;;19.95;54.44;95085.81;5046153;28;20736;-83
2022/08/17 00:23:16;;;;;;;4.82;4.43;;;;;;;19.96;54.45;95090.84;5042419;28;20229;-83
2022/08/17 00:25:43;;;;;;;5.75;4.43;;;;;;;19.92;54.76;95094.97;5045898;28;20201;-83
2022/08/17 00:28:08;;;;;;;8.30;4.68;;;;;;;19.90;54.61;95083.03;5044814;28;20186;-83
2022/08/17 00:30:34;;;;;;;5.85;4.25;;;;;;;19.88;54.72;95077.16;5033924;28;20242;-83
2022/08/17 00:33:00;;;;;;;6.20;4.15;;;;;;;19.81;54.89;95074.59;5039533;28;20181;-83
2022/08/17 00:35:26;;;;;;;6.45;4.47;;;;;;;19.80;55.27;95078.25;5066425;28;20209;-83
2022/08/17 00:37:52;;;;;;;6.25;4.65;;;;;;;19.73;55.28;95078.31;5047900;28;20178;-82
2022/08/17 00:40:17;;;;;;;7.45;4.60;;;;;;;19.65;55.72;95069.88;5026745;28;20198;-83
2022/08/17 00:42:48;;;;;;;6.55;4.53;;;;;;;19.57;56.11;95068.31;5035627;28;20185;-83
2022/08/17 00:45:16;;;;;;;5.63;5.07;;;;;;;19.45;56.61;95060.28;5036698;28;20205;-83
2022/08/17 00:47:42;;;;;;;6.00;5.40;;;;;;;19.39;57.28;95073.47;5050372;28;20178;-83
2022/08/17 00:50:11;;;;;;;5.78;5.18;;;;;;;19.31;57.73;95071.09;5048693;28;20208;-83
2022/08/17 00:52:42;;;;;;;5.47;4.82;;;;;;;19.24;57.73;95064.03;5045957;28;20173;-83
2022/08/17 00:55:09;;;;;;;5.63;4.57;;;;;;;19.20;57.77;95065.50;5043554;28;20218;-82
2022/08/17 00:57:38;;;;;;;5.35;4.85;;;;;;;19.20;57.69;95064.69;5030332;28;20189;-83
2022/08/17 01:00:14;;;;;;;5.07;4.68;;;;;;;19.15;58.03;95061.88;5045740;28;20185;-83
2022/08/17 01:02:42;;;;;;;6.07;5.03;;;;;;;19.10;58.32;95062.53;5048982;28;20189;-82
2022/08/17 01:05:08;;;;;;;6.20;5.15;;;;;;;19.07;58.47;95068.19;5048735;28;20213;-83
2022/08/17 01:07:33;;;;;;;5.97;5.38;;;;;;;19.00;58.57;95064.03;5044715;28;20265;-83
2022/08/17 01:10:02;;;;;;;6.78;5.78;;;;;;;18.95;59.01;95060.19;5044357;28;20709;-83
2022/08/17 01:12:29;;;;;;;5.28;4.63;;;;;;;19.01;59.37;95057.75;5043771;28;20183;-83
2022/08/17 01:14:54;;;;;;;4.80;4.40;;;;;;;18.94;58.87;95053.31;5073695;28;20201;-84
2022/08/17 01:17:19;;;;;;;5.78;5.15;;;;;;;19.01;59.16;95053.28;5069799;28;20195;-84
2022/08/17 01:19:45;;;;;;;5.03;4.63;;;;;;;19.00;59.03;95058.75;5060653;28;20182;-83
2022/08/17 01:22:10;;;;;;;6.10;4.72;;;;;;;18.95;58.85;95060.19;5049139;28;20182;-84
2022/08/17 01:24:46;;;;;;;7.97;4.93;;;;;;;18.95;59.22;95064.63;5069405;28;20201;-84
2022/08/17 01:27:14;;;;;;;6.13;4.57;;;;;;;18.92;58.67;95068.50;5048342;28;20676;-84
2022/08/17 01:29:42;;;;;;;6.70;5.07;;;;;;;18.94;58.35;95069.09;5032413;28;20644;-83
2022/08/17 01:32:07;;;;;;;4.93;4.43;;;;;;;18.94;58.64;95071.72;5047431;28;20181;-82
2022/08/17 01:34:32;;;;;;;5.22;4.72;;;;;;;18.93;58.62;95064.03;5061244;28;20712;-82
2022/08/17 01:36:58;;;;;;;5.10;4.35;;;;;;;18.94;58.79;95060.41;5035175;28;20201;-83
2022/08/17 01:39:30;;;;;;;5.72;5.22;;;;;;;18.98;58.75;95066.84;5047719;28;20181;-83
2022/08/17 01:42:04;;;;;;;5.20;4.55;;;;;;;19.04;58.68;95067.84;5074609;28;20203;-84
2022/08/17 01:44:30;;;;;;;5.00;4.60;;;;;;;19.00;58.52;95066.66;5081222;28;20211;-84
2022/08/17 01:46:55;;;;;;;7.65;4.60;;;;;;;19.01;58.60;95071.69;5077149;28;20165;-84
2022/08/17 01:49:20;;;;;;;7.18;4.28;;;;;;;19.02;58.60;95075.13;5056915;28;20189;-85
2022/08/17 01:51:45;;;;;;;5.20;4.70;;;;;;;18.99;58.66;95075.53;5073338;28;20185;-83
2022/08/17 01:54:14;;;;;;;6.18;4.43;;;;;;;19.00;58.72;95087.69;5033221;28;20197;-83
2022/08/17 01:56:42;;;;;;;5.00;4.47;;;;;;;19.10;58.66;95082.78;5030832;28;20649;-83
2022/08/17 01:59:07;;;;;;;5.93;5.32;;;;;;;19.05;58.63;95078.13;5046534;28;20185;-84
2022/08/17 02:01:33;;;;;;;6.03;5.10;;;;;;;19.08;58.60;95074.28;5027949;28;20173;-82
2022/08/17 02:03:59;;;;;;;6.30;4.82;;;;;;;19.13;58.68;95077.09;5034777;28;20314;-82
2022/08/17 02:06:24;;;;;;;5.18;4.65;;;;;;;19.17;58.57;95084.34;5030031;28;20177;-83
2022/08/17 02:08:49;;;;;;;5.22;4.72;;;;;;;19.15;58.32;95075.84;5028690;28;20626;-83
2022/08/17 02:11:17;;;;;;;8.27;5.30;;;;;;;19.23;58.08;95072.16;5044252;28;20243;-82
2022/08/17 02:13:44;;;;;;;6.85;5.07;;;;;;;19.34;57.48;95074.09;5048331;28;20271;-83
2022/08/17 02:16:10;;;;;;;6.97;4.72;;;;;;;19.36;57.29;95066.81;5025407;28;20254;-82
2022/08/17 02:18:35;;;;;;;6.40;4.68;;;;;;;19.43;56.86;95067.56;5045989;28;20197;-84
2022/08/17 02:21:01;;;;;;;5.90;4.65;;;;;;;19.58;56.23;95069.09;5029490;28;20269;-82
2022/08/17 02:23:29;;;;;;;7.53;4.57;;;;;;;19.65;55.78;95075.94;5031564;28;20208;-81
2022/08/17 02:25:57;;;;;;;5.20;4.70;;;;;;;19.71;56.12;95069.00;5048944;28;20198;-83
2022/08/17 02:28:22;;;;;;;4.90;4.38;;;;;;;19.77;55.09;95068.94;5034821;28;20221;-83
2022/08/17 02:30:48;;;;;;;6.40;4.68;;;;;;;19.83;55.32;95059.38;5029764;28;20760;-83
2022/08/17 02:33:14;;;;;;;5.25;4.75;;;;;;;19.96;54.61;95061.88;5036789;28;20182;-82
2022/08/17 02:35:39;;;;;;;5.10;4.57;;;;;;;20.00;54.14;95057.00;5034428;28;20273;-82
2022/08/17 02:38:05;;;;;;;5.97;4.88;;;;;;;20.00;54.65;95057.78;5051781;28;20217;-83
2022/08/17 02:40:33;;;;;;;7.32;4.75;;;;;;;20.05;54.17;95059.75;5050364;28;20169;-83
2022/08/17 02:42:58;;;;;;;5.32;4.60;;;;;;;20.11;53.54;95056.25;5031620;28;20243;-82
2022/08/17 02:45:24;;;;;;;4.60;4.25;;;;;;;20.17;53.56;95054.59;5039645;28;20208;-81
2022/08/17 02:47:50;;;;;;;6.80;4.93;;;;;;;20.10;53.52;95052.00;5028603;28;20338;-82
2022/08/17 02:50:18;;;;;;;4.90;4.40;;;;;;;20.17;53.54;95049.31;5032196;28;20704;-82
2022/08/17 02:52:45;;;;;;;6.40;4.05;;;;;;;20.12;53.32;95047.31;5046508;28;20199;-82
2022/08/17 02:55:20;;;;;;;4.68;4.28;;;;;;;20.04;53.66;95050.25;5033253;28;20743;-82
2022/08/17 02:57:45;;;;;;;7.03;4.88;;;;;;;19.99;54.02;95050.91;5029535;28;20273;-82
2022/08/17 03:00:17;;;;;;;5.85;4.97;;;;;;;20.00;54.02;95057.00;5046197;28;20673;-81
2022/08/17 03:02:43;;;;;;;5.43;4.13;;;;;;;20.06;53.59;95056.94;5029898;28;20211;-81
2022/08/17 03:05:10;;;;;;;5.10;4.60;;;;;;;20.08;53.27;95059.34;5029802;28;20231;-83
2022/08/17 03:07:37;;;;;;;6.22;4.68;;;;;;;20.08;53.40;95064.63;5030566;28;20270;-82
2022/08/17 03:10:03;;;;;;;5.88;4.55;;;;;;;20.07;53.14;95068.28;5045648;28;20193;-83
2022/08/17 03:12:33;;;;;;;8.35;4.63;;;;;;;20.05;53.43;95067.66;5025550;28;20212;-82
2022/08/17 03:15:10;;;;;;;9.73;4.60;;;;;;;20.03;53.27;95075.78;5027264;28;20235;-83
2022/08/17 03:17:35;;;;;;;7.05;4.30;;;;;;;19.97;52.98;95066.16;5016015;28;20182;-83
2022/08/17 03:20:01;;;;;;;5.18;4.25;;;;;;;20.00;53.06;95078.88;5059901;28;20172;-83
2022/08/17 03:22:27;;;;;;;6.28;4.80;;;;;;;20.05;52.78;95073.78;5035822;28;20184;-83
2022/08/17 03:24:54;;;;;;;6.32;4.20;;;;;;;20.10;52.36;95083.66;5050457;28;20792;-83
2022/08/17 03:27:19;;;;;;;5.05;4.63;;;;;;;20.08;52.73;95096.25;5018833;28;20185;-82
2022/08/17 03:29:44;;;;;;;5.10;4.60;;;;;;;20.11;52.47;95110.81;5037389;28;20193;-82
2022/08/17 03:32:12;;;;;;;7.93;5.10;;;;;;;20.02;52.60;95123.47;5043764;28;20189;-83
2022/08/17 03:34:37;;;;;;;4.65;4.10;;;;;;;20.03;52.38;95120.59;5043192;28;20753;-83
2022/08/17 03:37:02;;;;;;;7.28;4.88;;;;;;;19.96;52.75;95113.78;5022349;28;20247;-83
2022/08/17 03:39:27;;;;;;;4.55;4.15;;;;;;;19.86;52.98;95122.16;5030425;28;20230;-83
2022/08/17 03:41:54;;;;;;;5.55;4.63;;;;;;;19.76;53.58;95113.94;5046267;28;20185;-83
2022/08/17 03:44:19;;;;;;;5.00;4.50;;;;;;;19.66;54.03;95105.72;5028932;28;20200;-83
2022/08/17 03:57:40;;;;;;;6.25;4.78;;;;;;;19.18;56.17;95112.28;5052043;28;20724;-83
2022/08/17 04:00:06;;;;;;;6.43;4.35;;;;;;;19.16;56.29;95113.50;5039275;28;20204;-83
2022/08/17 04:02:32;;;;;;;5.25;4.65;;;;;;;19.11;56.72;95105.44;5053519;28;20726;-83
2022/08/17 04:04:58;;;;;;;5.78;4.63;;;;;;;19.10;56.70;95114.38;5034730;28;20230;-82
2022/08/17 04:07:26;;;;;;;5.35;4.85;;;;;;;19.06;57.34;95113.97;5049933;28;20184;-83
2022/08/17 04:09:51;;;;;;;7.05;5.10;;;;;;;19.06;57.68;95121.84;5033303;28;20193;-83
2022/08/17 04:12:19;;;;;;;6.30;5.22;;;;;;;19.05;58.22;95122.88;5046170;28;20277;-83
2022/08/17 04:14:44;;;;;;;5.53;4.93;;;;;;;19.06;57.77;95123.69;5031278;28;20239;-83
2022/08/17 04:17:10;;;;;;;5.95;5.35;;;;;;;19.09;58.07;95136.44;5047146;28;20627;-83
2022/08/17 04:19:35;;;;;;;6.60;5.15;;;;;;;19.05;58.03;95133.41;5043713;28;20716;-84
2022/08/17 04:22:00;;;;;;;6.72;4.78;;;;;;;19.03;58.28;95130.19;5030052;28;20188;-83
2022/08/17 04:24:26;;;;;;;5.32;4.85;;;;;;;19.10;58.47;95136.22;5064139;28;20206;-82
2022/08/17 04:26:51;;;;;;;6.03;4.72;;;;;;;19.16;57.93;95129.28;5015594;28;20608;-83
2022/08/17 04:29:17;;;;;;;6.13;5.53;;;;;;;19.19;57.92;95126.25;5038704;28;20189;-83
2022/08/17 04:31:43;;;;;;;5.78;5.28;;;;;;;19.23;57.44;95138.78;5028239;28;20299;-82
2022/08/17 04:34:10;;;;;;;5.63;5.13;;;;;;;19.35;57.11;95138.13;5036939;28;20213;-82
2022/08/17 04:36:36;;;;;;;5.32;4.82;;;;;;;19.44;57.09;95150.00;5041921;28;20182;-83
2022/08/17 04:39:01;;;;;;;6.15;4.63;;;;;;;19.52;56.85;95150.56;5046914;28;20190;-82
2022/08/17 04:44:11;;;;;;;5.15;4.55;;;;;;;19.72;56.40;95154.91;5047520;28;20252;-83
2022/08/17 04:46:37;;;;;;;5.32;4.82;;;;;;;19.79;56.11;95151.22;5051427;28;20250;-82
2022/08/17 04:49:06;;;;;;;5.38;4.88;;;;;;;19.87;55.71;95160.66;5045921;28;20181;-82
2022/08/17 04:51:34;;;;;;;7.65;5.10;;;;;;;19.91;55.58;95161.06;5046592;28;20184;-82
2022/08/17 04:54:03;;;;;;;7.10;5.45;;;;;;;20.00;55.38;95149.22;5029532;28;20184;-81
2022/08/17 04:56:29;;;;;;;5.50;5.00;;;;;;;20.09;55.15;95151.38;5051890;28;20694;-82
2022/08/17 04:59:01;;;;;;;7.05;4.68;;;;;;;20.13;55.45;95154.38;5045110;28;20185;-82
2022/08/17 05:01:29;;;;;;;5.80;5.30;;;;;;;20.21;55.07;95148.03;5027045;28;20173;-82
2022/08/17 05:04:03;;;;;;;5.53;4.70;;;;;;;20.23;55.18;95144.16;5049532;28;20781;-82
2022/08/17 05:06:29;;;;;;;5.82;5.03;;;;;;;20.37;54.66;95147.47;5028448;28;20208;-81
2022/08/17 05:08:55;;;;;;;5.55;5.00;;;;;;;20.41;54.31;95151.28;5035680;28;20629;-83
2022/08/17 05:11:22;;;;;;;6.20;5.47;;;;;;;20.39;54.35;95150.69;5025980;28;20200;-81
2022/08/17 05:13:48;;;;;;;6.07;5.43;;;;;;;20.30;55.01;95150.16;5037090;28;20189;-84
2022/08/17 05:16:15;;;;;;;6.10;5.50;;;;;;;20.37;55.31;95145.63;5024149;28;20331;-82
2022/08/17 05:18:40;;;;;;;5.78;5.22;;;;;;;20.45;55.52;95146.41;5046614;28;20174;-83
2022/08/17 05:21:05;;;;;;;5.50;5.00;;;;;;;20.42;55.52;95136.28;5049841;28;20180;-85
2022/08/17 05:23:31;;;;;;;6.63;5.05;;;;;;;20.44;55.53;95131.63;5034885;28;20173;-85
2022/08/17 05:25:57;;;;;;;6.25;5.65;;;;;;;20.49;55.69;95134.38;5051079;28;20219;-81
2022/08/17 05:28:25;;;;;;;6.88;5.40;;;;;;;20.68;55.17;95133.38;5071500;28;20265;-81
2022/08/17 05:30:51;;;;;;;5.85;5.25;;;;;;;20.87;54.77;95137.63;5058082;28;20186;-84
2022/08/17 05:33:22;;;;;;;5.80;5.28;;;;;;;21.06;54.98;95146.31;5038492;28;20196;-82
2022/08/17 05:35:50;;;;;;;5.90;5.40;;;;;;;21.26;53.70;95137.34;5031255;28;20254;-83
2022/08/17 05:38:18;;;;;;;6.22;5.47;;;;;;;21.53;53.33;95137.81;5032437;28;20227;-83
2022/08/17 05:40:44;;;;;;;5.78;5.18;;;;;;;21.75;52.66;95134.44;5031239;28;20178;-83
2022/08/17 05:43:11;;;;;;;6.20;5.47;;;;;;;22.05;51.85;95136.97;5046310;28;20182;-79
2022/08/17 05:45:45;;;;;;;9.00;5.40;;;;;;;22.33;51.01;95146.91;5065419;28;20672;-79
2022/08/17 05:48:10;;;;;;;7.57;5.68;;;;;;;22.46;50.42;95148.53;5048924;28;20229;-79
2022/08/17 05:51:02;;;;;;;7.53;6.40;;;;;;;22.45;50.39;95151.41;5048749;28;20659;-82
2022/08/17 05:53:34;;;;;;;5.93;5.32;;;;;;;22.63;50.02;95146.00;5030924;28;20185;-83
2022/08/17 05:56:11;;;;;;;5.03;4.63;;;;;;;22.74;49.72;95157.59;5045418;28;20308;-82
2022/08/17 05:58:52;;;;;;;6.40;5.75;;;;;;;22.66;49.80;95156.09;5046738;28;20235;-81
2022/08/17 06:01:56;;;;;;;8.55;5.40;;;;;;;22.47;50.20;95159.91;5042314;28;20185;-82
2022/08/17 06:04:29;;;;;;;7.25;4.97;;;;;;;22.37;50.78;95170.28;5030846;28;20583;-82
2022/08/17 06:07:04;;;;;;;6.00;5.00;;;;;;;22.46;50.70;95182.13;5048986;28;20181;-82
2022/08/17 06:09:40;;;;;;;7.53;5.70;;;;;;;22.57;50.48;95178.66;5028368;28;20193;-82
2022/08/17 06:12:31;;;;;;;10.02;5.32;;;;;;;22.98;49.25;95166.34;5047387;28;20204;-82
2022/08/17 06:15:06;;;;;;;6.35;5.75;;;;;;;22.80;49.08;95168.06;5000374;28;20213;-83
2022/08/17 06:17:32;;;;;;;5.95;5.35;;;;;;;23.06;49.50;95172.06;5048104;28;20183;-82
2022/08/17 06:20:09;;;;;;;5.78;5.28;;;;;;;23.36;47.86;95174.50;5030937;28;20182;-82
2022/08/17 06:22:56;;;;;;;5.78;5.28;;;;;;;23.79;46.80;95172.38;5030986;28;20267;-82
2022/08/17 06:25:31;;;;;;;5.05;4.57;;;;;;;23.91;45.93;95176.56;5034340;28;20284;-81
2022/08/17 06:28:27;;;;;;;4.95;4.55;;;;;;;23.90;46.64;95179.47;5047511;28;20185;-81
2022/08/17 06:30:59;;;;;;;5.68;5.07;;;;;;;23.67;46.95;95177.72;5029353;28;20244;-82
2022/08/17 06:33:34;;;;;;;6.95;4.70;;;;;;;23.71;46.61;95184.19;5045741;28;20204;-83
2022/08/17 06:36:07;;;;;;;8.13;5.05;;;;;;;23.46;47.34;95185.28;5040651;28;20299;-82
2022/08/17 06:38:42;;;;;;;9.27;4.93;;;;;;;23.37;48.04;95185.91;5030573;28;20560;-83
2022/08/17 06:41:36;;;;;;;6.07;5.38;;;;;;;23.40;48.13;95198.66;5023254;28;20177;-82
2022/08/17 06:44:16;;;;;;;6.63;5.00;;;;;;;23.30;48.32;95201.91;5041546;28;20184;-81
2022/08/17 06:46:47;;;;;;;5.93;5.07;;;;;;;23.12;48.63;95194.16;5030700;28;20540;-83
2022/08/17 06:49:24;;;;;;;5.88;5.38;;;;;;;23.09;48.68;95186.69;5027130;28;20213;-83
2022/08/17 06:52:33;;;;;;;6.20;4.93;;;;;;;23.65;47.18;95201.81;5031235;28;20189;-83
2022/08/17 06:55:02;;;;;;;5.65;4.53;;;;;;;24.25;46.16;95203.13;5032316;28;20221;-82
2022/08/17 06:57:30;;;;;;;5.88;5.28;;;;;;;24.41;45.53;95190.94;5062554;28;20549;-83
2022/08/17 07:00:07;;;;;;;7.00;5.03;;;;;;;24.58;44.96;95189.88;5048205;28;20188;-82
2022/08/17 07:02:57;;;;;;;5.75;5.20;;;;;;;24.23;45.05;95179.47;5025851;28;20177;-82
2022/08/17 07:05:38;;;;;;;5.93;5.38;;;;;;;24.02;46.12;95180.97;5042540;28;20212;-83
2022/08/17 07:08:36;;;;;;;5.43;4.93;;;;;;;23.82;46.88;95170.03;5025181;28;20178;-83
2022/08/17 07:11:06;;;;;;;6.75;5.72;;;;;;;23.73;48.24;95174.13;5028399;28;20213;-83
2022/08/17 07:14:00;;;;;;;6.57;5.97;;;;;;;23.40;49.45;95185.41;5039766;28;20185;-82
2022/08/17 07:16:37;;;;;;;7.85;6.35;;;;;;;23.16;50.40;95182.88;5045891;28;20216;-82
2022/08/17 07:19:03;;;;;;;6.88;6.28;;;;;;;23.31;49.43;95192.94;5045928;28;20212;-82
2022/08/17 07:21:44;;;;;;;6.38;5.57;;;;;;;23.25;50.44;95201.84;5030998;28;20235;-83
2022/08/17 07:24:14;;;;;;;6.30;5.80;;;;;;;23.29;49.46;95202.97;5059147;28;20235;-83
2022/08/17 07:26:39;;;;;;;7.57;6.72;;;;;;;23.29;49.56;95207.47;5059867;28;20192;-83
2022/08/17 07:29:05;;;;;;;6.35;5.75;;;;;;;23.28;49.28;95206.66;5029527;28;20653;-83
2022/08/17 07:31:32;;;;;;;5.78;5.28;;;;;;;23.10;49.59;95206.81;5035894;28;20189;-82
2022/08/17 07:34:07;;;;;;;7.05;5.55;;;;;;;23.27;49.47;95207.69;5027962;28;20228;-83
2022/08/17 07:36:33;;;;;;;6.65;5.93;;;;;;;23.25;49.61;95222.22;5044230;28;20209;-83
2022/08/17 07:39:00;;;;;;;5.85;5.45;;;;;;;23.20;49.85;95220.25;5047321;28;20640;-83
2022/08/17 07:41:26;;;;;;;5.90;5.45;;;;;;;23.14;50.72;95218.53;5027985;28;20188;-84
2022/08/17 07:43:52;;;;;;;5.80;5.20;;;;;;;22.98;52.75;95217.44;5027155;28;20189;-83
2022/08/17 07:49:06;;;;;;;8.77;6.32;;;;;;;22.79;54.21;95224.69;5049032;28;20220;-83
2022/08/17 07:51:46;;;;;;;6.88;6.28;;;;;;;22.66;55.88;95224.91;5062012;28;20201;-84
2022/08/17 07:54:14;;;;;;;6.78;6.18;;;;;;;22.39;56.67;95235.13;5057758;28;20838;-83
2022/08/17 07:56:44;;;;;;;7.15;6.25;;;;;;;22.31;57.23;95238.91;5043206;28;20193;-82
2022/08/17 07:59:15;;;;;;;8.20;7.40;;;;;;;22.48;58.54;95240.91;5043374;28;20187;-83
2022/08/17 08:01:44;;;;;;;6.75;6.15;;;;;;;22.36;56.86;95240.09;5047492;28;20185;-83
2022/08/17 08:04:28;;;;;;;7.13;6.43;;;;;;;22.28;58.30;95230.66;5027427;28;20202;-82
2022/08/17 08:06:58;;;;;;;7.30;6.72;;;;;;;22.22;58.46;95236.84;5048832;28;20181;-83
2022/08/17 08:09:33;;;;;;;7.53;6.45;;;;;;;22.00;59.40;95236.53;5053417;28;20177;-83
2022/08/17 08:12:23;;;;;;;7.72;6.13;;;;;;;22.02;61.47;95226.53;5071886;28;20189;-83
2022/08/17 08:15:19;;;;;;;7.40;6.78;;;;;;;22.13;60.07;95240.84;5069206;28;20205;-82
2022/08/17 08:17:48;;;;;;;6.90;6.30;;;;;;;21.99;60.81;95234.91;5035164;28;20199;-83
2022/08/17 08:20:13;;;;;;;7.55;6.50;;;;;;;21.91;61.05;95238.69;5044655;28;20176;-82
2022/08/17 08:22:53;;;;;;;7.40;6.80;;;;;;;21.97;60.86;95237.78;5042714;28;20189;-82
2022/08/17 08:25:39;;;;;;;7.03;6.43;;;;;;;21.84;60.55;95239.81;5044517;28;20205;-83
2022/08/17 08:28:42;;;;;;;8.05;6.25;;;;;;;21.71;60.98;95246.88;5030151;28;20222;-82
2022/08/17 08:31:46;;;;;;;6.85;6.30;;;;;;;21.62;60.94;95258.78;5063528;28;20192;-82
2022/08/17 08:34:22;;;;;;;6.85;6.32;;;;;;;21.52;62.10;95271.72;5027584;28;20249;-83
2022/08/17 08:37:13;;;;;;;7.70;6.80;;;;;;;21.45;63.45;95269.16;5042387;28;20232;-83
2022/08/17 08:39:57;;;;;;;8.52;6.80;;;;;;;21.23;65.87;95275.91;5063934;28;20177;-83
2022/08/17 08:42:38;;;;;;;7.80;7.05;;;;;;;21.00;66.50;95283.66;5039616;28;20185;-83
2022/08/17 08:45:16;;;;;;;7.00;6.30;;;;;;;20.99;66.76;95282.84;5025470;28;20204;-82
2022/08/17 08:47:58;;;;;;;6.82;6.25;;;;;;;21.12;67.00;95295.13;5026693;28;20177;-82
2022/08/17 08:50:26;;;;;;;7.47;6.38;;;;;;;21.11;66.35;95281.09;5035871;28;20227;-83
2022/08/17 08:53:04;;;;;;;7.68;6.88;;;;;;;21.34;66.99;95287.59;5048575;28;20185;-83
2022/08/17 08:55:44;;;;;;;7.00;6.35;;;;;;;21.47;66.46;95279.53;5043755;28;20594;-83
2022/08/17 08:58:31;;;;;;;7.75;6.50;;;;;;;21.30;67.14;95281.16;5034476;28;20173;-82
2022/08/17 09:00:57;;;;;;;9.07;6.95;;;;;;;21.32;66.94;95271.16;5050802;28;20177;-83
2022/08/17 09:04:02;;;;;;;7.20;6.60;;;;;;;21.44;67.07;95264.91;5034317;28;20646;-84
2022/08/17 09:06:30;;;;;;;6.55;5.78;;;;;;;21.87;65.00;95274.53;5058602;28;20224;-84
2022/08/17 09:09:37;;;;;;;7.07;6.15;;;;;;;21.93;63.78;95262.25;5047623;28;20680;-84
2022/08/17 09:12:40;;;;;;;6.50;5.95;;;;;;;21.80;65.57;95270.34;4974665;28;20684;-84
2022/08/17 09:15:17;;;;;;;6.40;5.82;;;;;;;21.64;65.71;95280.50;5048334;28;20213;-86
2022/08/17 09:17:59;;;;;;;10.25;5.68;;;;;;;21.61;63.34;95265.13;5034856;28;20188;-83
2022/08/17 09:20:43;;;;;;;5.88;5.35;;;;;;;21.41;63.25;95280.41;5032353;28;20166;-85
2022/08/17 09:23:29;;;;;;;6.22;5.63;;;;;;;21.22;64.06;95290.16;5062916;28;20803;-84
2022/08/17 09:25:59;;;;;;;6.80;6.07;;;;;;;21.21;64.90;95291.19;5030465;28;20209;-83
2022/08/17 09:28:33;;;;;;;6.25;5.65;;;;;;;21.44;64.18;95285.25;5043505;28;20181;-84
2022/08/17 09:31:03;;;;;;;6.78;5.80;;;;;;;21.47;64.37;95287.47;5050875;28;20209;-82
2022/08/17 09:33:29;;;;;;;6.35;5.82;;;;;;;21.37;65.23;95303.00;5047343;28;20177;-83
2022/08/17 09:36:04;;;;;;;6.00;5.50;;;;;;;21.46;64.89;95304.31;5037412;28;21340;-84
2022/08/17 09:38:38;;;;;;;6.32;5.88;;;;;;;21.42;66.13;95305.78;5047012;28;20181;-84
2022/08/17 09:41:15;;;;;;;7.50;5.80;;;;;;;21.42;67.27;95306.59;5049731;28;20173;-83
2022/08/17 09:44:01;;;;;;;6.38;5.78;;;;;;;21.46;67.77;95288.47;5040842;28;20192;-82
2022/08/17 09:46:45;;;;;;;6.25;5.63;;;;;;;21.23;68.59;95288.31;5045813;28;20177;-82
2022/08/17 09:49:36;;;;;;;7.07;6.35;;;;;;;20.87;68.68;95298.63;5045967;28;20752;-83
2022/08/17 09:52:20;;;;;;;7.00;6.22;;;;;;;21.05;69.52;95310.22;5008185;28;20585;-83
2022/08/17 09:54:47;;;;;;;6.80;6.18;;;;;;;20.95;70.14;95297.53;5064075;28;20196;-83
2022/08/17 09:57:12;;;;;;;8.27;6.35;;;;;;;20.96;69.62;95300.97;5015922;28;20196;-83
2022/08/17 09:59:56;;;;;;;6.65;6.10;;;;;;;20.95;71.05;95302.00;5037484;28;20173;-83
2022/08/17 10:02:53;;;;;;;6.63;6.07;;;;;;;20.93;72.10;95299.56;5055275;28;20193;-82
2022/08/17 10:05:30;;;;;;;7.43;6.68;;;;;;;20.80;71.61;95302.34;5036162;28;20201;-82
2022/08/17 10:08:21;;;;;;;6.72;6.10;;;;;;;20.79;71.06;95298.09;5034214;28;20219;-83
2022/08/17 10:11:14;;;;;;;7.90;6.22;;;;;;;20.71;70.70;95301.81;5067268;28;20304;-83
2022/08/17 10:13:50;;;;;;;6.75;6.15;;;;;;;20.59;70.97;95298.25;5060417;28;20619;-82
2022/08/17 10:16:24;;;;;;;7.35;6.65;;;;;;;20.75;71.55;95300.34;5033640;28;20185;-84
2022/08/17 10:19:22;;;;;;;6.93;6.07;;;;;;;20.95;70.45;95297.53;5023557;28;20220;-82
2022/08/17 10:27:46;;;;;;;7.75;6.32;;;;;;;20.73;71.20;95330.59;5043242;28;20381;-82
2022/08/17 10:30:16;;;;;;;6.57;6.07;;;;;;;20.41;71.23;95342.97;5028892;28;20215;-83
2022/08/17 10:32:54;;;;;;;6.53;5.90;;;;;;;20.48;71.18;95347.22;5026146;28;20205;-84
2022/08/17 10:35:33;;;;;;;6.88;6.28;;;;;;;20.41;70.87;95364.06;5032344;28;20233;-83
2022/08/17 10:38:36;;;;;;;7.55;6.32;;;;;;;20.55;72.18;95369.09;5016711;28;20190;-84
2022/08/17 10:41:30;;;;;;;7.63;6.93;;;;;;;20.63;72.41;95374.09;5028832;28;20669;-83
2022/08/17 10:44:11;;;;;;;7.78;7.18;;;;;;;20.68;72.41;95372.69;5031673;28;20236;-84
2022/08/17 10:46:50;;;;;;;8.75;7.93;;;;;;;20.81;72.36;95375.19;5016982;28;20192;-83
2022/08/17 10:49:16;;;;;;;10.07;9.18;;;;;;;21.10;72.45;95374.53;5045155;28;20259;-84
2022/08/17 10:51:42;;;;;;;8.82;7.95;;;;;;;21.27;73.55;95401.22;5035013;28;20594;-85
2022/08/17 10:54:45;;;;;;;7.63;6.90;;;;;;;21.37;71.36;95400.72;5043703;28;20300;-84
2022/08/17 10:57:25;;;;;;;7.57;6.97;;;;;;;21.36;71.74;95396.47;5026075;28;20281;-86
2022/08/17 10:59:51;;;;;;;7.10;6.50;;;;;;;21.47;69.46;95388.66;5064973;28;20237;-84
2022/08/17 11:02:46;;;;;;;7.15;6.63;;;;;;;21.70;68.75;95380.06;5044492;28;20181;-85
2022/08/17 11:05:39;;;;;;;7.22;6.43;;;;;;;21.75;69.33;95389.97;5043298;28;20217;-84
2022/08/17 11:08:42;;;;;;;8.27;7.20;;;;;;;22.03;67.24;95392.06;5064294;28;20692;-84
2022/08/17 11:11:38;;;;;;;7.57;6.80;;;;;;;22.54;67.76;95369.66;5062201;28;20291;-83
2022/08/17 11:14:13;;;;;;;6.95;6.35;;;;;;;22.48;65.10;95365.25;5038953;28;20184;-85
2022/08/17 11:17:00;;;;;;;6.72;6.22;;;;;;;23.01;63.47;95364.47;5066677;28;20466;-86
2022/08/17 11:19:43;;;;;;;6.57;5.97;;;;;;;22.64;63.93;95361.97;5064219;28;20252;-85
2022/08/17 11:22:43;;;;;;;6.47;5.97;;;;;;;23.12;62.69;95359.16;5061871;28;20219;-85
2022/08/17 11:25:21;;;;;;;6.60;6.00;;;;;;;23.37;61.02;95363.41;5059400;28;20205;-84
2022/08/17 11:27:52;;;;;;;6.75;6.25;;;;;;;23.26;60.74;95362.38;5023053;28;20185;-85
2022/08/17 11:30:43;;;;;;;6.40;5.90;;;;;;;23.04;60.11;95364.00;5046040;28;20204;-84
2022/08/17 11:33:27;;;;;;;6.32;5.82;;;;;;;23.21;58.85;95364.09;5027558;28;20201;-85
2022/08/17 11:36:13;;;;;;;8.13;5.75;;;;;;;23.22;57.25;95373.66;5061966;28;20830;-84
2022/08/17 11:38:56;;;;;;;5.78;5.28;;;;;;;23.10;57.34;95365.72;5046374;28;20185;-85
2022/08/17 11:41:48;;;;;;;5.57;5.07;;;;;;;23.21;56.38;95361.47;5024346;28;20186;-83
2022/08/17 11:44:36;;;;;;;5.35;4.95;;;;;;;23.35;55.31;95363.66;5043642;28;20206;-84
2022/08/17 11:53:00;;;;;;;5.25;4.82;;;;;;;23.18;52.39;95349.50;5045046;28;20188;-84
2022/08/17 11:55:33;;;;;;;5.30;4.90;;;;;;;23.36;53.67;95340.63;5031762;28;20672;-85
2022/08/17 11:58:05;;;;;;;5.63;5.13;;;;;;;23.13;55.02;95336.94;5039363;28;20385;-83
2022/08/17 12:00:55;;;;;;;6.40;5.80;;;;;;;23.32;55.77;95320.91;5048555;28;20213;-84
2022/08/17 12:03:30;;;;;;;6.13;5.55;;;;;;;23.61;55.56;95327.13;5065851;28;20181;-84
2022/08/17 12:06:23;;;;;;;6.22;5.63;;;;;;;23.62;59.71;95326.88;5061508;28;20225;-85
2022/08/17 12:08:52;;;;;;;6.22;5.75;;;;;;;23.57;61.88;95315.34;5062291;28;20182;-84
2022/08/17 12:11:36;;;;;;;6.05;5.43;;;;;;;23.36;63.10;95293.72;5047151;28;20255;-85
2022/08/17 12:14:02;;;;;;;6.70;5.93;;;;;;;23.34;61.50;95298.47;5024992;28;20197;-83
2022/08/17 12:16:28;;;;;;;7.18;6.57;;;;;;;23.17;61.67;95298.38;5027268;28;20196;-84
2022/08/17 12:18:57;;;;;;;5.90;5.40;;;;;;;23.19;60.73;95298.13;5043747;28;20272;-81
2022/08/17 12:21:49;;;;;;;6.30;5.75;;;;;;;23.16;61.15;95293.31;5032639;28;20174;-82
2022/08/17 12:24:19;;;;;;;7.80;5.60;;;;;;;23.05;61.61;95302.03;5048766;28;20200;-82
2022/08/17 12:26:52;;;;;;;7.22;6.45;;;;;;;23.10;62.15;95302.16;5027749;28;20228;-83
2022/08/17 12:29:17;;;;;;;6.82;6.22;;;;;;;23.25;62.22;95307.81;5027675;28;20181;-83
2022/08/17 12:31:46;;;;;;;6.60;6.00;;;;;;;23.30;61.83;95307.91;5025482;28;20213;-84